Time;durP1;ratioP1;P1;durP2;ratioP2;P2;SDS_P1;SDS_P2;PMS_P1;PMS_P2;Temp;Humidity;BMP_temperature;BMP_pressure;BME280_temperature;BME280_humidity;BME280_pressure;Samples;Min_cycle;Max_cycle;Signal;HPM_P1;HPM_P2
2024/03/17 00:01:01;;;;;;;10.63;3.88;;;;;;;-146.27;70.73;45661.91;5083663;28;20930;-75
2024/03/17 00:03:27;;;;;;;7.68;3.92;;;;;;;-146.27;70.97;45659.91;5097546;28;20031;-74
2024/03/17 00:05:59;;;;;;;10.98;4.63;;;;;;;-146.27;71.08;45671.84;5090954;28;20024;-74
2024/03/17 00:08:25;;;;;;;11.57;4.10;;;;;;;-146.27;71.60;45681.81;5090528;28;20043;-74
2024/03/17 00:10:52;;;;;;;11.40;4.38;;;;;;;-146.27;71.66;45663.88;5090288;28;20520;-72
2024/03/17 00:13:17;;;;;;;16.48;5.03;;;;;;;-146.27;71.43;45663.88;5086578;28;20042;-74
2024/03/17 00:15:43;;;;;;;14.80;4.22;;;;;;;-146.27;70.95;45663.88;5091390;28;20475;-73
2024/03/17 00:18:08;;;;;;;11.80;4.32;;;;;;;-146.27;71.48;45679.81;5087497;28;20043;-72
2024/03/17 00:20:34;;;;;;;12.48;4.78;;;;;;;-146.27;71.95;45655.94;5086714;28;20020;-73
2024/03/17 00:23:00;;;;;;;15.63;5.07;;;;;;;-146.27;72.15;45681.81;5085255;28;20012;-74
2024/03/17 00:25:26;;;;;;;11.73;4.68;;;;;;;-146.27;72.23;45651.94;5081202;28;20076;-74
2024/03/17 00:27:55;;;;;;;16.95;5.85;;;;;;;-146.27;72.38;45667.88;5078733;28;20424;-74
2024/03/17 00:30:21;;;;;;;9.43;5.25;;;;;;;-146.27;72.20;45642.00;5082061;28;20028;-74
2024/03/17 00:32:46;;;;;;;13.88;5.35;;;;;;;-146.27;72.24;45643.97;5089735;28;20744;-73
2024/03/17 00:35:14;;;;;;;13.55;4.93;;;;;;;-146.27;72.40;45640.00;5082078;28;20107;-73
2024/03/17 00:37:39;;;;;;;8.43;4.55;;;;;;;-146.27;72.71;45659.91;5087514;28;20439;-73
2024/03/17 00:40:06;;;;;;;9.02;4.88;;;;;;;-146.27;72.43;45638.00;5090588;28;20038;-73
2024/03/17 00:42:32;;;;;;;13.00;5.82;;;;;;;-146.27;72.60;45616.13;5089480;28;20149;-73
2024/03/17 00:44:59;;;;;;;11.20;5.40;;;;;;;-146.27;72.26;45628.06;5091275;28;20028;-73
2024/03/17 00:47:25;;;;;;;11.65;5.65;;;;;;;-146.27;72.40;45647.97;5089430;28;20028;-73
2024/03/17 00:49:50;;;;;;;10.65;5.15;;;;;;;-146.27;72.38;45608.16;5090621;28;20035;-73
2024/03/17 00:52:16;;;;;;;15.13;5.55;;;;;;;-146.27;72.43;45612.13;5086685;28;20070;-73
2024/03/17 00:54:42;;;;;;;9.63;5.95;;;;;;;-146.27;72.92;45645.97;5087113;28;20544;-73
2024/03/17 00:57:07;;;;;;;10.95;5.30;;;;;;;-146.27;73.21;45608.16;5080772;28;20055;-73
2024/03/17 00:59:33;;;;;;;13.15;5.90;;;;;;;-146.27;73.16;45622.09;5085761;28;20035;-73
2024/03/17 01:01:58;;;;;;;9.43;5.65;;;;;;;-146.27;72.78;45643.97;5089633;28;20078;-73
2024/03/17 01:04:24;;;;;;;11.15;6.32;;;;;;;-146.27;72.64;45608.16;5088867;28;20613;-73
2024/03/17 01:06:49;;;;;;;8.48;5.53;;;;;;;-146.27;72.71;45604.19;5089612;28;20031;-73
2024/03/17 01:09:14;;;;;;;10.20;6.03;;;;;;;-146.27;72.85;45626.06;5085205;28;20572;-72
2024/03/17 01:11:40;;;;;;;11.55;5.72;;;;;;;-146.27;72.86;45616.13;5082453;28;20602;-72
2024/03/17 01:14:07;;;;;;;11.75;6.25;;;;;;;-146.27;72.84;45602.19;5091069;28;20032;-73
2024/03/17 01:16:33;;;;;;;12.27;6.22;;;;;;;-146.27;72.82;45610.16;5088735;28;20032;-73
2024/03/17 01:18:58;;;;;;;15.13;6.07;;;;;;;-146.27;72.68;45574.31;5077090;28;20434;-74
2024/03/17 01:21:24;;;;;;;10.52;6.05;;;;;;;-146.27;73.04;45616.13;5085918;28;20452;-74
2024/03/17 01:23:49;;;;;;;12.35;5.75;;;;;;;-146.27;73.63;45604.19;5089777;28;20500;-73
2024/03/17 01:26:15;;;;;;;14.15;6.45;;;;;;;-146.27;73.70;45608.16;5087684;28;20138;-74
2024/03/17 01:28:40;;;;;;;13.40;6.47;;;;;;;-146.27;73.58;45624.06;5093050;28;20023;-73
2024/03/17 01:31:06;;;;;;;17.48;7.15;;;;;;;-146.27;74.11;45616.13;5081970;28;20042;-74
2024/03/17 01:33:32;;;;;;;10.70;6.13;;;;;;;-146.27;74.31;45612.13;5087434;28;20032;-73
2024/03/17 01:35:57;;;;;;;16.65;6.88;;;;;;;-146.27;74.75;45598.19;5088192;28;20088;-74
2024/03/17 01:38:23;;;;;;;10.20;6.47;;;;;;;-146.27;74.83;45618.09;5090990;28;20136;-73
2024/03/17 01:40:48;;;;;;;10.93;6.30;;;;;;;-146.27;74.83;45602.19;5090367;28;20031;-73
2024/03/17 01:43:13;;;;;;;16.30;6.75;;;;;;;-146.27;75.01;45653.94;5075215;28;20024;-73
2024/03/17 01:45:39;;;;;;;14.13;6.32;;;;;;;-146.27;75.13;45610.16;5088231;28;20041;-74
2024/03/17 01:48:12;;;;;;;13.95;7.53;;;;;;;-146.27;75.19;45598.19;5083201;28;20024;-74
2024/03/17 01:50:37;;;;;;;11.70;6.97;;;;;;;-146.27;75.32;45632.03;5087348;28;20540;-74
2024/03/17 01:53:05;;;;;;;14.05;6.78;;;;;;;-146.27;75.49;45628.06;5088315;28;20294;-74
2024/03/17 01:55:32;;;;;;;11.30;5.88;;;;;;;-146.27;75.72;45592.22;5086169;28;20039;-74
2024/03/17 01:57:58;;;;;;;11.48;6.65;;;;;;;-146.27;75.87;45600.19;5075837;28;20055;-74
2024/03/17 02:00:23;;;;;;;16.02;6.50;;;;;;;-146.27;75.53;45604.19;5082174;28;20491;-74
2024/03/17 02:02:49;;;;;;;14.65;7.03;;;;;;;-146.27;75.99;45592.22;5081360;28;20091;-74
2024/03/17 02:05:14;;;;;;;13.55;6.63;;;;;;;-146.27;75.70;45614.13;5078712;28;20028;-73
2024/03/17 02:07:40;;;;;;;14.18;6.35;;;;;;;-146.27;75.69;45586.25;5088041;28;20111;-73
2024/03/17 02:10:08;;;;;;;12.50;6.78;;;;;;;-146.27;75.78;45560.38;5083034;28;20063;-73
2024/03/17 02:12:34;;;;;;;13.50;6.70;;;;;;;-146.27;75.48;45576.31;5086522;28;20170;-73
2024/03/17 02:15:00;;;;;;;13.35;6.32;;;;;;;-146.27;75.73;45570.34;5082756;28;20039;-73
2024/03/17 02:17:27;;;;;;;10.82;6.60;;;;;;;-146.27;75.39;45564.38;5082738;28;20404;-73
2024/03/17 02:19:52;;;;;;;14.73;6.47;;;;;;;-146.27;75.56;45576.31;5081679;28;20024;-73
2024/03/17 02:22:18;;;;;;;10.48;5.70;;;;;;;-146.27;75.69;45556.41;5088553;28;20031;-73
2024/03/17 02:24:44;;;;;;;16.55;6.97;;;;;;;-146.27;75.99;45592.22;5083219;28;20046;-72
2024/03/17 02:27:10;;;;;;;13.57;6.93;;;;;;;-146.27;75.93;45532.53;5081632;28;20086;-74
2024/03/17 02:29:36;;;;;;;12.38;6.43;;;;;;;-146.27;76.26;45556.41;5086445;28;20505;-74
2024/03/17 02:32:06;;;;;;;11.90;6.95;;;;;;;-146.27;76.45;45566.34;5081275;28;20031;-73
2024/03/17 02:34:35;;;;;;;12.85;6.95;;;;;;;-146.27;76.59;45536.50;5081943;28;20027;-74
2024/03/17 02:37:03;;;;;;;14.43;7.55;;;;;;;-146.27;76.59;45512.63;5088310;28;20020;-73
2024/03/17 02:39:34;;;;;;;11.90;6.68;;;;;;;-146.27;76.53;45524.56;5090030;28;20050;-73
2024/03/17 02:42:07;;;;;;;16.90;7.63;;;;;;;-146.27;76.65;45518.59;5080553;28;20365;-72
2024/03/17 02:44:34;;;;;;;12.32;6.85;;;;;;;-146.27;76.77;45540.50;5084286;28;20388;-72
2024/03/17 02:47:01;;;;;;;12.50;7.20;;;;;;;-146.27;76.68;45524.56;5076815;28;20020;-73
2024/03/17 02:49:35;;;;;;;13.70;7.38;;;;;;;-146.27;76.74;45548.44;5088840;28;20357;-72
2024/03/17 02:52:00;;;;;;;11.93;7.20;;;;;;;-146.27;76.58;45526.56;5089780;28;20082;-73
2024/03/17 02:54:26;;;;;;;15.05;7.47;;;;;;;-146.27;76.41;45492.72;5089951;28;20031;-74
2024/03/17 02:56:51;;;;;;;15.48;6.88;;;;;;;-146.27;76.62;45528.53;5088175;28;20043;-74
2024/03/17 02:59:17;;;;;;;13.77;7.43;;;;;;;-146.27;76.74;45508.63;5082443;28;20034;-74
2024/03/17 03:01:42;;;;;;;13.70;7.25;;;;;;;-146.27;76.35;45502.66;5083896;28;20031;-74
2024/03/17 03:04:08;;;;;;;18.15;7.70;;;;;;;-146.27;76.63;45494.72;5087644;28;20137;-73
2024/03/17 03:06:34;;;;;;;13.75;7.35;;;;;;;-146.27;76.58;45518.59;5088220;28;20484;-73
2024/03/17 03:08:59;;;;;;;12.88;7.80;;;;;;;-146.27;76.57;45508.63;5082386;28;20042;-73
2024/03/17 03:11:24;;;;;;;15.48;7.25;;;;;;;-146.27;76.46;45488.75;5069660;28;20024;-73
2024/03/17 03:13:50;;;;;;;15.88;8.20;;;;;;;-146.27;76.41;45496.69;5088606;28;20480;-73
2024/03/17 03:16:15;;;;;;;15.68;8.00;;;;;;;-146.27;76.65;45480.78;5085904;28;20030;-73
2024/03/17 03:18:41;;;;;;;13.20;7.50;;;;;;;-146.27;76.94;45512.63;5077828;28;20107;-73
2024/03/17 03:21:07;;;;;;;12.93;7.43;;;;;;;-146.27;76.60;45484.75;5089238;28;20024;-73
2024/03/17 03:23:32;;;;;;;11.07;7.15;;;;;;;-146.27;76.77;45504.66;5069820;28;20063;-74
2024/03/17 03:25:59;;;;;;;12.27;7.57;;;;;;;-146.27;77.04;45496.69;5086985;28;20118;-73
2024/03/17 03:28:26;;;;;;;12.70;7.53;;;;;;;-146.27;76.86;45484.75;5085212;28;20024;-72
2024/03/17 03:30:51;;;;;;;14.68;7.03;;;;;;;-146.27;77.33;45488.75;5086034;28;20066;-73
2024/03/17 03:33:20;;;;;;;12.15;6.97;;;;;;;-146.27;77.30;45520.59;5094012;28;20024;-73
2024/03/17 03:35:46;;;;;;;12.57;6.88;;;;;;;-146.27;77.15;45486.75;5093185;28;20554;-73
2024/03/17 03:38:13;;;;;;;11.98;7.45;;;;;;;-146.27;77.18;45526.56;5092123;28;20107;-73
2024/03/17 03:40:40;;;;;;;17.98;6.85;;;;;;;-146.27;77.31;45492.72;5091604;28;20020;-74
2024/03/17 03:43:05;;;;;;;13.57;6.93;;;;;;;-146.27;77.37;45518.59;5093391;28;20027;-73
2024/03/17 03:45:30;;;;;;;12.38;7.22;;;;;;;-146.27;76.92;45494.72;5089146;28;20028;-74
2024/03/17 03:47:56;;;;;;;12.10;6.40;;;;;;;-146.27;77.11;45490.72;5091295;28;20031;-74
2024/03/17 03:50:22;;;;;;;13.90;7.75;;;;;;;-146.27;77.37;45504.66;5090497;28;20035;-74
2024/03/17 03:52:50;;;;;;;16.35;7.38;;;;;;;-146.27;77.34;45460.88;5094873;28;20380;-74
2024/03/17 03:55:16;;;;;;;10.40;6.90;;;;;;;-146.27;77.48;45488.75;5081275;28;20027;-74
2024/03/17 03:57:42;;;;;;;19.45;7.35;;;;;;;-146.27;77.50;45444.94;5092351;28;20046;-74
2024/03/17 04:00:15;;;;;;;10.55;7.45;;;;;;;-146.27;77.78;45462.88;5081541;28;20032;-75
2024/03/17 04:02:43;;;;;;;13.07;7.70;;;;;;;-146.27;78.23;45476.78;5087462;28;20103;-76
2024/03/17 04:05:09;;;;;;;17.95;7.65;;;;;;;-146.27;77.96;45468.84;5092167;28;20020;-75
2024/03/17 04:07:35;;;;;;;12.48;7.32;;;;;;;-146.27;78.06;45450.91;5092272;28;20452;-75
2024/03/17 04:10:01;;;;;;;11.43;6.82;;;;;;;-146.27;78.38;45456.91;5077861;28;20021;-76
2024/03/17 04:12:27;;;;;;;11.60;7.13;;;;;;;-146.27;78.54;45474.81;5091832;28;20450;-75
2024/03/17 04:14:53;;;;;;;10.68;7.38;;;;;;;-146.27;78.29;45488.75;5092415;28;20015;-75
2024/03/17 04:17:22;;;;;;;13.85;7.10;;;;;;;-146.27;78.25;45464.84;5088328;28;20035;-75
2024/03/17 04:19:50;;;;;;;17.25;7.25;;;;;;;-146.27;78.21;45454.91;5092396;28;20484;-76
2024/03/17 04:22:16;;;;;;;12.27;7.30;;;;;;;-146.27;78.19;45468.84;5088801;28;20093;-75
2024/03/17 04:24:47;;;;;;;12.60;6.55;;;;;;;-146.27;78.32;45484.75;5089910;28;20049;-76
2024/03/17 04:27:13;;;;;;;10.38;6.68;;;;;;;-146.27;78.69;45460.88;5089440;28;20468;-76
2024/03/17 04:29:39;;;;;;;11.48;6.78;;;;;;;-146.27;79.14;45448.94;5084247;28;20031;-75
2024/03/17 04:32:05;;;;;;;14.57;7.45;;;;;;;-146.27;79.60;45454.91;5089241;28;20024;-76
2024/03/17 04:34:31;;;;;;;15.00;6.97;;;;;;;-146.27;79.28;45446.94;5087762;28;20035;-75
2024/03/17 04:36:57;;;;;;;12.23;7.72;;;;;;;-146.27;79.29;45456.91;5088978;28;20032;-75
2024/03/17 04:39:23;;;;;;;11.10;7.20;;;;;;;-146.27;79.56;45433.00;5091166;28;20045;-75
2024/03/17 04:41:49;;;;;;;13.88;7.93;;;;;;;-146.27;79.72;45417.09;5080121;28;20016;-75
2024/03/17 04:44:15;;;;;;;18.27;7.60;;;;;;;-146.27;79.69;45440.97;5083036;28;20028;-75
2024/03/17 04:46:40;;;;;;;12.00;7.53;;;;;;;-146.27;79.47;45415.09;5088519;28;20028;-76
2024/03/17 04:49:06;;;;;;;12.68;7.40;;;;;;;-146.27;79.53;45435.00;5080645;28;20028;-75
2024/03/17 04:51:33;;;;;;;17.83;8.27;;;;;;;-146.27;79.33;45421.06;5090660;28;20400;-75
2024/03/17 04:53:59;;;;;;;16.17;7.70;;;;;;;-146.27;79.22;45433.00;5096827;28;20437;-76
2024/03/17 04:56:24;;;;;;;15.43;8.52;;;;;;;-146.27;79.39;45421.06;5095703;27;20024;-75
2024/03/17 04:58:49;;;;;;;11.70;7.63;;;;;;;-146.27;79.23;45438.97;5089282;28;20396;-75
2024/03/17 05:01:15;;;;;;;12.88;8.48;;;;;;;-146.27;79.06;45413.09;5091030;28;20092;-75
2024/03/17 05:03:40;;;;;;;14.63;8.23;;;;;;;-146.27;79.11;45437.00;5083968;28;20111;-76
2024/03/17 05:06:06;;;;;;;12.55;7.50;;;;;;;-146.27;79.12;45440.97;5088747;28;20032;-76
2024/03/17 05:08:34;;;;;;;14.73;8.30;;;;;;;-146.27;78.93;45415.09;5088019;28;20028;-75
2024/03/17 05:11:04;;;;;;;15.25;8.20;;;;;;;-146.27;79.08;45437.00;5082402;28;20551;-76
2024/03/17 05:13:31;;;;;;;13.48;8.20;;;;;;;-146.27;79.49;45437.00;5089513;28;20047;-76
2024/03/17 05:15:56;;;;;;;13.18;7.75;;;;;;;-146.27;79.62;45427.03;5087239;28;20107;-75
2024/03/17 05:18:25;;;;;;;17.75;8.88;;;;;;;-146.27;79.57;45429.03;5081217;28;20119;-76
2024/03/17 05:21:01;;;;;;;11.32;7.85;;;;;;;-146.27;79.48;45435.00;5088603;28;20028;-76
2024/03/17 05:23:28;;;;;;;13.02;7.78;;;;;;;-146.27;79.97;45437.00;5082039;28;20080;-76
2024/03/17 05:25:54;;;;;;;13.05;8.55;;;;;;;-146.27;79.97;45413.09;5089431;28;20127;-75
2024/03/17 05:28:19;;;;;;;11.68;7.88;;;;;;;-146.27;79.66;45401.16;5088168;28;20039;-75
2024/03/17 05:30:45;;;;;;;13.85;8.05;;;;;;;-146.27;79.55;45415.09;5081777;28;20407;-75
2024/03/17 05:33:10;;;;;;;14.45;8.05;;;;;;;-146.27;79.43;45421.06;5087954;28;20020;-75
2024/03/17 05:35:36;;;;;;;13.35;7.38;;;;;;;-146.27;79.45;45411.13;5083866;28;20067;-75
2024/03/17 05:38:01;;;;;;;15.43;8.75;;;;;;;-146.27;79.67;45425.06;5089504;28;20837;-76
2024/03/17 05:40:27;;;;;;;14.32;7.72;;;;;;;-146.27;79.71;45397.19;5090361;28;20055;-75
2024/03/17 05:42:52;;;;;;;13.98;7.35;;;;;;;-146.27;79.58;45429.03;5087105;28;20028;-76
2024/03/17 05:45:18;;;;;;;16.27;7.25;;;;;;;-146.27;79.18;45411.13;5090296;28;20032;-76
2024/03/17 05:47:43;;;;;;;11.25;7.40;;;;;;;-146.27;79.22;45444.94;5088681;28;20024;-75
2024/03/17 05:50:09;;;;;;;13.23;7.57;;;;;;;-146.27;79.52;45425.06;5073506;28;20495;-75
2024/03/17 05:52:34;;;;;;;12.43;7.95;;;;;;;-146.27;79.61;45423.06;5082233;28;20067;-75
2024/03/17 05:55:00;;;;;;;12.35;8.30;;;;;;;-146.27;79.63;45431.03;5089435;28;20024;-75
2024/03/17 05:57:26;;;;;;;12.05;8.05;;;;;;;-146.27;79.38;45468.84;5088583;28;20032;-75
2024/03/17 05:59:51;;;;;;;12.07;7.95;;;;;;;-146.27;79.36;45460.88;5087984;28;20038;-75
2024/03/17 06:02:18;;;;;;;17.20;7.78;;;;;;;-146.27;79.40;45429.03;5082902;28;20455;-75
2024/03/17 06:04:44;;;;;;;12.02;8.00;;;;;;;-146.27;79.58;45438.97;5081877;28;20023;-75
2024/03/17 06:07:10;;;;;;;14.88;7.90;;;;;;;-146.27;79.50;45442.97;5073761;28;20028;-75
2024/03/17 06:09:35;;;;;;;15.93;7.97;;;;;;;-146.27;79.32;45492.72;5079787;28;20038;-74
2024/03/17 06:12:01;;;;;;;11.80;7.78;;;;;;;-146.27;79.08;45472.81;5080744;28;20028;-75
2024/03/17 06:14:26;;;;;;;12.80;7.45;;;;;;;-146.27;79.29;45518.59;5080047;28;20208;-75
2024/03/17 06:16:51;;;;;;;12.75;9.00;;;;;;;-146.27;79.10;45512.63;5082417;28;20024;-75
2024/03/17 06:19:17;;;;;;;12.48;8.05;;;;;;;-146.27;78.81;45534.50;5087717;28;20315;-75
2024/03/17 06:21:42;;;;;;;13.07;7.65;;;;;;;-146.27;78.79;45556.41;5086325;28;20774;-75
2024/03/17 06:24:08;;;;;;;13.68;8.23;;;;;;;-146.27;78.92;45568.34;5089458;28;20028;-76
2024/03/17 06:26:34;;;;;;;12.05;7.90;;;;;;;-146.27;78.68;45594.22;5082967;28;20025;-76
2024/03/17 06:29:02;;;;;;;14.07;7.95;;;;;;;-146.27;78.65;45630.06;5071023;28;20024;-77
2024/03/17 06:31:28;;;;;;;15.13;7.32;;;;;;;-146.27;78.82;45628.06;5082391;28;20027;-77
2024/03/17 06:33:53;;;;;;;15.40;7.88;;;;;;;-146.27;78.49;45606.16;5082955;28;20117;-77
2024/03/17 06:36:19;;;;;;;15.60;8.27;;;;;;;-146.27;78.21;45663.88;5082952;28;20050;-78
2024/03/17 06:38:44;;;;;;;18.80;7.90;;;;;;;-146.27;78.28;45663.88;5075161;28;20028;-77
2024/03/17 06:41:10;;;;;;;13.65;7.40;;;;;;;-146.27;78.56;45711.66;5090197;28;20035;-78
2024/03/17 06:43:35;;;;;;;15.50;7.53;;;;;;;-146.27;78.55;45699.72;5089801;28;20055;-77
2024/03/17 06:46:00;;;;;;;11.88;7.90;;;;;;;-146.27;78.38;45711.66;5077641;28;20028;-78
2024/03/17 06:48:27;;;;;;;16.20;8.02;;;;;;;-146.27;78.41;45729.56;5086710;28;20055;-77
2024/03/17 06:50:56;;;;;;;13.80;7.53;;;;;;;-146.27;78.02;45711.66;5086305;28;20081;-75
2024/03/17 06:53:23;;;;;;;13.00;8.02;;;;;;;-146.27;78.24;45735.53;5089044;28;20476;-77
2024/03/17 06:55:53;;;;;;;12.40;7.50;;;;;;;-146.27;77.74;45761.41;5089592;28;20557;-78
2024/03/17 06:58:22;;;;;;;12.38;7.70;;;;;;;-146.27;77.47;45747.47;5087397;28;20028;-78
2024/03/17 07:01:01;;;;;;;11.80;7.90;;;;;;;-146.27;77.29;45781.31;5086675;28;20150;-77
2024/03/17 07:03:28;;;;;;;11.50;7.43;;;;;;;-146.27;77.34;45769.38;5060837;28;20044;-77
2024/03/17 07:05:59;;;;;;;10.63;7.53;;;;;;;-146.27;77.51;45775.34;5089997;28;20024;-78
2024/03/17 07:08:25;;;;;;;11.75;7.38;;;;;;;-146.27;77.38;45797.25;5092726;28;20043;-77
2024/03/17 07:11:06;;;;;;;11.82;7.45;;;;;;;-146.27;77.04;45787.28;5095236;28;20019;-76
2024/03/17 07:13:36;;;;;;;12.20;7.40;;;;;;;-146.27;76.79;45799.22;5094671;27;20024;-77
2024/03/17 07:16:03;;;;;;;15.50;8.50;;;;;;;-146.27;77.22;45797.25;5093606;28;20032;-76
2024/03/17 07:18:29;;;;;;;12.15;7.35;;;;;;;-146.27;76.90;45799.22;5092974;28;20024;-78
2024/03/17 07:20:59;;;;;;;12.27;7.55;;;;;;;-146.27;76.94;45769.38;5074932;28;20062;-78
2024/03/17 07:23:26;;;;;;;14.05;7.63;;;;;;;-146.27;76.61;45755.44;5091041;28;20024;-78
2024/03/17 07:25:53;;;;;;;12.57;7.90;;;;;;;-146.27;77.01;45781.31;5093072;28;20048;-76
2024/03/17 07:28:19;;;;;;;13.32;7.97;;;;;;;-146.27;76.91;45739.53;5092376;28;20027;-75
2024/03/17 07:30:55;;;;;;;13.82;8.20;;;;;;;-146.27;76.79;45731.56;5087163;28;20093;-74
2024/03/17 07:33:21;;;;;;;17.02;8.43;;;;;;;-146.27;76.32;45707.69;5085773;28;20024;-72
2024/03/17 07:35:47;;;;;;;14.70;8.02;;;;;;;-146.27;76.38;45729.56;5077590;28;20020;-73
2024/03/17 07:38:13;;;;;;;14.15;8.45;;;;;;;-146.27;76.40;45727.56;5091644;28;20020;-72
2024/03/17 07:40:38;;;;;;;13.63;7.75;;;;;;;-146.27;76.48;45719.63;5093494;28;20032;-72
2024/03/17 07:43:04;;;;;;;16.48;8.30;;;;;;;-146.27;76.81;45701.69;5089523;28;20039;-71
2024/03/17 07:45:29;;;;;;;15.98;9.13;;;;;;;-146.27;76.51;45691.75;5092172;28;20050;-75
2024/03/17 07:47:55;;;;;;;14.23;8.77;;;;;;;-146.27;76.79;45739.53;5083566;28;20081;-72
2024/03/17 07:50:20;;;;;;;12.70;8.40;;;;;;;-146.27;76.69;45729.56;5081433;28;20159;-72
2024/03/17 07:52:46;;;;;;;11.02;7.47;;;;;;;-146.27;76.84;45705.69;5090504;28;20581;-72
2024/03/17 07:55:12;;;;;;;12.95;8.10;;;;;;;-146.27;76.64;45675.81;5088396;28;20158;-73
2024/03/17 07:57:37;;;;;;;16.35;9.27;;;;;;;-146.27;76.49;45705.69;5096441;28;20110;-73
2024/03/17 08:00:09;;;;;;;12.05;8.30;;;;;;;-146.27;76.23;45683.78;5092475;28;20099;-72
2024/03/17 08:02:35;;;;;;;13.27;7.57;;;;;;;-146.27;76.44;45689.75;5094187;28;20705;-72
2024/03/17 08:05:00;;;;;;;12.68;7.70;;;;;;;-146.27;76.44;45663.88;5094795;28;20108;-72
2024/03/17 08:07:25;;;;;;;12.48;7.53;;;;;;;-146.27;76.03;45687.78;5093749;28;20067;-72
2024/03/17 08:09:51;;;;;;;14.45;8.50;;;;;;;-146.27;76.22;45695.72;5091341;28;20103;-72
2024/03/17 08:12:16;;;;;;;13.20;8.27;;;;;;;-146.27;76.07;45657.91;5092408;28;20028;-71
2024/03/17 08:14:41;;;;;;;15.02;8.07;;;;;;;-146.27;75.99;45659.91;5086965;28;20556;-71
2024/03/17 08:17:07;;;;;;;14.18;8.25;;;;;;;-146.27;76.39;45671.84;5080387;28;20532;-73
2024/03/17 08:19:32;;;;;;;13.18;8.02;;;;;;;-146.27;76.49;45653.94;5086549;28;20020;-72
2024/03/17 08:21:58;;;;;;;12.98;7.88;;;;;;;-146.27;76.36;45665.88;5091936;28;20475;-72
2024/03/17 08:24:23;;;;;;;14.15;7.60;;;;;;;-146.27;76.38;45651.94;5091239;28;20496;-72
2024/03/17 08:26:48;;;;;;;14.35;7.95;;;;;;;-146.27;76.12;45640.00;5089894;28;20028;-71
2024/03/17 08:29:14;;;;;;;14.40;8.73;;;;;;;-146.27;76.10;45636.03;5092290;28;20080;-70
2024/03/17 08:31:39;;;;;;;19.67;8.05;;;;;;;-146.27;76.54;45632.03;5092492;28;20651;-71
2024/03/17 08:34:05;;;;;;;15.15;8.13;;;;;;;-146.27;76.30;45640.00;5091901;28;20027;-70
2024/03/17 08:36:31;;;;;;;11.95;8.27;;;;;;;-146.27;76.92;45614.13;5092023;28;20539;-71
2024/03/17 08:38:58;;;;;;;18.98;8.68;;;;;;;-146.27;76.71;45604.19;5092168;28;20027;-73
2024/03/17 08:41:23;;;;;;;12.10;7.95;;;;;;;-146.27;76.47;45612.13;5088192;28;20123;-76
2024/03/17 08:43:49;;;;;;;13.98;8.15;;;;;;;-146.27;76.40;45632.03;5091477;28;20546;-76
2024/03/17 08:46:14;;;;;;;12.40;7.85;;;;;;;-146.27;76.86;45612.13;5090697;28;20476;-76
2024/03/17 08:48:41;;;;;;;14.48;8.93;;;;;;;-146.27;76.94;45602.19;5090792;28;20028;-77
2024/03/17 08:51:08;;;;;;;12.57;8.20;;;;;;;-146.27;76.91;45592.22;5089792;28;20035;-76
2024/03/17 08:53:34;;;;;;;14.13;8.95;;;;;;;-146.27;76.76;45586.25;5087378;28;20020;-77
2024/03/17 08:55:59;;;;;;;12.15;7.97;;;;;;;-146.27;76.87;45588.25;5092782;28;20031;-79
2024/03/17 08:58:26;;;;;;;12.25;8.15;;;;;;;-146.27;76.77;45536.50;5081212;28;20044;-76
2024/03/17 09:00:51;;;;;;;14.35;8.15;;;;;;;-146.27;76.55;45552.44;5089196;28;20032;-77
2024/03/17 09:03:17;;;;;;;13.27;7.57;;;;;;;-146.27;76.20;45534.50;5089596;28;20400;-76
2024/03/17 09:05:45;;;;;;;14.45;8.52;;;;;;;-146.27;75.95;45544.47;5090750;28;20489;-76
2024/03/17 09:08:22;;;;;;;13.85;9.20;;;;;;;-146.27;75.72;45492.72;5091494;28;20036;-76
2024/03/17 09:10:49;;;;;;;11.75;7.90;;;;;;;-146.27;75.45;45520.59;5088257;28;20027;-77
2024/03/17 09:13:23;;;;;;;16.75;7.75;;;;;;;-146.27;74.82;45514.63;5091009;28;20102;-76
2024/03/17 09:16:00;;;;;;;11.52;7.47;;;;;;;-146.27;74.41;45476.78;5095258;28;20023;-74
2024/03/17 09:18:35;;;;;;;12.50;7.30;;;;;;;-146.27;73.67;45446.94;5082343;28;20498;-75
2024/03/17 09:21:03;;;;;;;14.80;7.63;;;;;;;-146.27;73.12;45544.47;5083931;28;20020;-76
2024/03/17 09:23:30;;;;;;;16.00;7.57;;;;;;;-146.27;72.64;45464.84;5085278;28;20451;-75
2024/03/17 09:25:59;;;;;;;12.25;7.60;;;;;;;-146.27;72.80;45488.75;5081357;28;20044;-76
2024/03/17 09:28:24;;;;;;;15.40;7.68;;;;;;;-146.27;72.44;45476.78;5091321;28;20028;-77
2024/03/17 09:30:52;;;;;;;9.07;7.03;;;;;;;-146.27;72.13;45446.94;5091201;28;20421;-78
2024/03/17 09:33:22;;;;;;;12.65;7.95;;;;;;;-146.27;72.34;45446.94;5091627;28;20030;-75
2024/03/17 09:36:00;;;;;;;10.30;6.82;;;;;;;-146.27;72.10;45458.88;5088911;28;20048;-75
2024/03/17 09:38:29;;;;;;;12.00;7.85;;;;;;;-146.27;71.80;45425.06;5091016;28;20031;-77
2024/03/17 09:41:00;;;;;;;12.32;7.53;;;;;;;-146.27;71.65;45405.16;5092507;28;20035;-78
2024/03/17 09:43:27;;;;;;;12.32;7.80;;;;;;;-146.27;71.47;45419.09;5093672;28;20015;-77
2024/03/17 09:45:57;;;;;;;10.38;6.90;;;;;;;-146.27;71.80;45433.00;5102749;28;20107;-77
2024/03/17 09:48:23;;;;;;;10.77;7.43;;;;;;;-146.27;71.32;45444.94;5104481;28;20053;-75
2024/03/17 09:50:51;;;;;;;14.30;7.88;;;;;;;-146.27;71.11;45421.06;5089346;28;20480;-72
2024/03/17 09:53:18;;;;;;;12.88;7.38;;;;;;;-146.27;71.17;45409.13;5089692;28;20052;-73
2024/03/17 09:55:44;;;;;;;10.45;7.10;;;;;;;-146.27;70.84;45361.38;5095140;28;20029;-73
2024/03/17 09:58:16;;;;;;;14.45;7.85;;;;;;;-146.27;69.79;45395.19;5106486;28;20093;-71
2024/03/17 10:00:42;;;;;;;15.77;7.38;;;;;;;-146.27;69.89;45379.28;5092256;28;20031;-72
2024/03/17 10:03:08;;;;;;;12.18;6.47;;;;;;;-146.27;69.23;45367.34;5100057;28;20360;-69
2024/03/17 10:05:33;;;;;;;11.68;6.70;;;;;;;-146.27;69.13;45297.69;5092285;28;20032;-72
2024/03/17 10:07:59;;;;;;;10.93;7.00;;;;;;;-146.27;69.04;45311.59;5099230;28;20080;-72
2024/03/17 10:10:24;;;;;;;13.63;6.80;;;;;;;-146.27;69.51;45301.66;5088765;28;20038;-71
2024/03/17 10:12:59;;;;;;;11.15;6.10;;;;;;;-146.27;68.56;45291.72;5087802;28;20035;-71
2024/03/17 10:15:26;;;;;;;12.30;7.60;;;;;;;-146.27;68.37;45281.75;5087542;28;20055;-70
2024/03/17 10:17:51;;;;;;;9.65;6.47;;;;;;;-146.27;68.38;45265.84;5096041;28;20110;-71
2024/03/17 10:20:20;;;;;;;10.88;6.18;;;;;;;-146.27;68.36;45241.94;5098432;28;20099;-72
2024/03/17 10:23:03;;;;;;;11.05;7.55;;;;;;;-146.27;67.96;45325.53;5082262;28;20078;-71
2024/03/17 10:25:30;;;;;;;16.17;6.70;;;;;;;-146.27;67.60;45329.53;5070717;28;20455;-71
2024/03/17 10:27:56;;;;;;;12.77;6.75;;;;;;;-146.27;68.23;45335.50;5086066;28;20020;-70
2024/03/17 10:30:25;;;;;;;9.52;6.05;;;;;;;-146.27;67.61;45317.56;5103874;28;20076;-71
2024/03/17 10:32:58;;;;;;;12.35;6.65;;;;;;;-146.27;67.24;45285.75;5092941;28;20024;-72
2024/03/17 10:35:29;;;;;;;10.45;7.00;;;;;;;-146.27;66.98;45271.81;5090579;28;20126;-69
2024/03/17 10:37:59;;;;;;;11.93;6.45;;;;;;;-146.27;66.70;45230.00;5089250;28;20020;-71
2024/03/17 10:40:26;;;;;;;12.15;6.90;;;;;;;-146.27;66.36;45194.19;5089019;28;20112;-73
2024/03/17 10:42:52;;;;;;;8.10;5.25;;;;;;;-146.27;65.98;45194.19;5089048;28;20016;-73
2024/03/17 10:45:17;;;;;;;8.80;6.32;;;;;;;-146.27;66.15;45192.19;5087100;28;20383;-72
2024/03/17 10:47:50;;;;;;;9.00;5.53;;;;;;;-146.27;65.87;45146.44;5087976;28;20020;-74
2024/03/17 10:50:25;;;;;;;10.85;6.28;;;;;;;-146.27;65.57;45146.44;5084020;28;20035;-72
2024/03/17 10:52:51;;;;;;;9.73;6.50;;;;;;;-146.27;65.92;45222.06;5096251;28;20024;-72
2024/03/17 10:55:40;;;;;;;7.95;5.47;;;;;;;-146.27;65.95;45222.06;5073335;28;20127;-72
2024/03/17 10:58:13;;;;;;;12.32;6.10;;;;;;;-146.27;66.41;45178.28;5071579;28;20062;-72
2024/03/17 11:00:42;;;;;;;11.13;6.28;;;;;;;-146.27;66.81;45206.13;5087608;28;20051;-74
2024/03/17 11:03:11;;;;;;;10.15;5.78;;;;;;;-146.27;66.95;45160.34;5096979;28;20101;-75
2024/03/17 11:05:37;;;;;;;10.32;5.70;;;;;;;-146.27;66.78;45132.50;5076608;28;20032;-75
2024/03/17 11:08:03;;;;;;;14.63;6.38;;;;;;;-146.27;66.89;45124.53;5086242;28;20036;-76